Guenes, Spain
Current Conditions -  °F | °C
As of 11:00 AM on Saturday 22 Nov 2014 (Local Time) from LEBB Reporting Station
Clear Clear  
Wind Chill: 64°   Ceiling: Unl
Heat Index: 64°   Visibility: 6mi
Dew Point: 55°   Wind: 8mph
Humidity: 73%   Direction: 150°SSE
Pressure: 29.91"   Gusts: NA
Location:  43.22°N, 3.08°W
Report Text: LEBB 221000Z 15007KT 100V190 CAVOK 18/13 Q1013 NOSIG
Loading
Personal Weather Stations






























Interactive Weather Map New forecast layout! Learn more

10-Day Weather Forecast

Advertisements
Track Severe Weather on mobile